sensor_id;sensor_type;location;lat;lon;timestamp;temperature;humidity
54832;DHT22;40730;53.068;6.572;2023-04-26T00:00:21;2.30;99.90
54832;DHT22;40730;53.068;6.572;2023-04-26T00:02:46;2.30;99.90
54832;DHT22;40730;53.068;6.572;2023-04-26T00:05:13;2.30;99.90
54832;DHT22;40730;53.068;6.572;2023-04-26T00:07:40;2.30;99.90
54832;DHT22;40730;53.068;6.572;2023-04-26T00:10:07;2.40;99.90
54832;DHT22;40730;53.068;6.572;2023-04-26T00:12:35;2.50;99.90
54832;DHT22;40730;53.068;6.572;2023-04-26T00:15:02;2.60;99.90
54832;DHT22;40730;53.068;6.572;2023-04-26T00:17:27;2.70;99.90
54832;DHT22;40730;53.068;6.572;2023-04-26T00:19:53;2.90;99.90
54832;DHT22;40730;53.068;6.572;2023-04-26T00:22:19;3.00;99.90
54832;DHT22;40730;53.068;6.572;2023-04-26T00:24:44;3.00;99.90
54832;DHT22;40730;53.068;6.572;2023-04-26T00:27:10;3.00;99.90
54832;DHT22;40730;53.068;6.572;2023-04-26T00:29:36;3.00;99.90
54832;DHT22;40730;53.068;6.572;2023-04-26T00:32:02;3.00;99.90
54832;DHT22;40730;53.068;6.572;2023-04-26T00:34:35;3.00;99.90
54832;DHT22;40730;53.068;6.572;2023-04-26T00:37:01;3.00;99.90
54832;DHT22;40730;53.068;6.572;2023-04-26T00:39:28;2.90;99.90
54832;DHT22;40730;53.068;6.572;2023-04-26T00:41:53;2.90;99.90
54832;DHT22;40730;53.068;6.572;2023-04-26T00:44:19;2.80;99.90
54832;DHT22;40730;53.068;6.572;2023-04-26T00:46:45;2.70;99.90
54832;DHT22;40730;53.068;6.572;2023-04-26T00:49:15;2.70;99.90
54832;DHT22;40730;53.068;6.572;2023-04-26T00:51:43;2.60;99.90
54832;DHT22;40730;53.068;6.572;2023-04-26T00:54:09;2.60;99.90
54832;DHT22;40730;53.068;6.572;2023-04-26T00:56:36;2.60;99.90
54832;DHT22;40730;53.068;6.572;2023-04-26T00:59:03;2.50;99.90
54832;DHT22;40730;53.068;6.572;2023-04-26T01:01:29;2.40;99.90
54832;DHT22;40730;53.068;6.572;2023-04-26T01:03:55;2.40;99.90
54832;DHT22;40730;53.068;6.572;2023-04-26T01:06:21;2.40;99.90
54832;DHT22;40730;53.068;6.572;2023-04-26T01:08:49;2.30;99.90
54832;DHT22;40730;53.068;6.572;2023-04-26T01:11:17;2.30;99.90
54832;DHT22;40730;53.068;6.572;2023-04-26T01:13:44;2.20;99.90
54832;DHT22;40730;53.068;6.572;2023-04-26T01:16:11;2.20;99.90
54832;DHT22;40730;53.068;6.572;2023-04-26T01:18:38;2.20;99.90
54832;DHT22;40730;53.068;6.572;2023-04-26T01:21:03;2.10;99.90
54832;DHT22;40730;53.068;6.572;2023-04-26T01:23:30;2.20;99.90
54832;DHT22;40730;53.068;6.572;2023-04-26T01:25:55;2.10;99.90
54832;DHT22;40730;53.068;6.572;2023-04-26T01:28:21;2.10;99.90
54832;DHT22;40730;53.068;6.572;2023-04-26T01:30:47;2.20;99.90
54832;DHT22;40730;53.068;6.572;2023-04-26T01:33:13;2.10;99.90
54832;DHT22;40730;53.068;6.572;2023-04-26T01:35:40;2.10;99.90
54832;DHT22;40730;53.068;6.572;2023-04-26T01:38:06;2.10;99.90
54832;DHT22;40730;53.068;6.572;2023-04-26T01:40:32;2.10;99.90
54832;DHT22;40730;53.068;6.572;2023-04-26T01:42:58;2.10;99.90
54832;DHT22;40730;53.068;6.572;2023-04-26T01:45:24;2.10;99.90
54832;DHT22;40730;53.068;6.572;2023-04-26T01:47:49;2.10;99.90
54832;DHT22;40730;53.068;6.572;2023-04-26T01:50:15;2.10;99.90
54832;DHT22;40730;53.068;6.572;2023-04-26T01:52:41;2.20;99.90
54832;DHT22;40730;53.068;6.572;2023-04-26T01:55:07;2.20;99.90
54832;DHT22;40730;53.068;6.572;2023-04-26T01:57:32;2.30;99.90
54832;DHT22;40730;53.068;6.572;2023-04-26T01:59:58;2.30;99.90
54832;DHT22;40730;53.068;6.572;2023-04-26T02:02:24;2.40;99.90
54832;DHT22;40730;53.068;6.572;2023-04-26T02:04:49;2.50;99.90
54832;DHT22;40730;53.068;6.572;2023-04-26T02:07:15;2.50;99.90
54832;DHT22;40730;53.068;6.572;2023-04-26T02:09:41;2.50;99.90
54832;DHT22;40730;53.068;6.572;2023-04-26T02:12:06;2.60;99.90
54832;DHT22;40730;53.068;6.572;2023-04-26T02:14:32;2.60;99.90
54832;DHT22;40730;53.068;6.572;2023-04-26T02:16:58;2.60;99.90
54832;DHT22;40730;53.068;6.572;2023-04-26T02:19:24;2.60;99.90
54832;DHT22;40730;53.068;6.572;2023-04-26T02:21:55;2.50;99.90
54832;DHT22;40730;53.068;6.572;2023-04-26T02:24:22;2.50;99.90
54832;DHT22;40730;53.068;6.572;2023-04-26T02:26:48;3.10;99.90
54832;DHT22;40730;53.068;6.572;2023-04-26T02:29:14;2.40;99.90
54832;DHT22;40730;53.068;6.572;2023-04-26T02:31:39;2.40;99.90
54832;DHT22;40730;53.068;6.572;2023-04-26T02:34:05;2.40;99.90
54832;DHT22;40730;53.068;6.572;2023-04-26T02:36:30;2.30;99.90
54832;DHT22;40730;53.068;6.572;2023-04-26T02:38:58;2.30;99.90
54832;DHT22;40730;53.068;6.572;2023-04-26T02:41:23;2.30;99.90
54832;DHT22;40730;53.068;6.572;2023-04-26T02:43:49;2.30;99.90
54832;DHT22;40730;53.068;6.572;2023-04-26T02:46:15;2.30;99.90
54832;DHT22;40730;53.068;6.572;2023-04-26T02:48:40;2.30;99.90
54832;DHT22;40730;53.068;6.572;2023-04-26T02:51:06;2.20;99.90
54832;DHT22;40730;53.068;6.572;2023-04-26T02:53:32;2.20;99.90
54832;DHT22;40730;53.068;6.572;2023-04-26T02:55:57;2.20;99.90
54832;DHT22;40730;53.068;6.572;2023-04-26T02:58:25;2.20;99.90
54832;DHT22;40730;53.068;6.572;2023-04-26T03:00:50;2.10;99.90
54832;DHT22;40730;53.068;6.572;2023-04-26T03:03:16;2.20;99.90
54832;DHT22;40730;53.068;6.572;2023-04-26T03:05:42;2.10;99.90
54832;DHT22;40730;53.068;6.572;2023-04-26T03:08:07;2.10;99.90
54832;DHT22;40730;53.068;6.572;2023-04-26T03:10:33;2.20;99.90
54832;DHT22;40730;53.068;6.572;2023-04-26T03:12:59;2.20;99.90
54832;DHT22;40730;53.068;6.572;2023-04-26T03:15:24;2.20;99.90
54832;DHT22;40730;53.068;6.572;2023-04-26T03:17:50;2.20;99.90
54832;DHT22;40730;53.068;6.572;2023-04-26T03:20:16;2.20;99.90
54832;DHT22;40730;53.068;6.572;2023-04-26T03:22:42;2.20;99.90
54832;DHT22;40730;53.068;6.572;2023-04-26T03:25:08;2.20;99.90
54832;DHT22;40730;53.068;6.572;2023-04-26T03:27:33;2.30;99.90
54832;DHT22;40730;53.068;6.572;2023-04-26T03:29:59;2.30;99.90
54832;DHT22;40730;53.068;6.572;2023-04-26T03:32:24;2.30;99.90
54832;DHT22;40730;53.068;6.572;2023-04-26T03:34:50;2.40;99.90
54832;DHT22;40730;53.068;6.572;2023-04-26T03:37:16;2.40;99.90
54832;DHT22;40730;53.068;6.572;2023-04-26T03:39:41;2.40;99.90
54832;DHT22;40730;53.068;6.572;2023-04-26T03:42:07;2.50;99.90
54832;DHT22;40730;53.068;6.572;2023-04-26T03:44:32;2.60;99.90
54832;DHT22;40730;53.068;6.572;2023-04-26T03:46:58;2.60;99.90
54832;DHT22;40730;53.068;6.572;2023-04-26T03:49:24;2.60;99.90
54832;DHT22;40730;53.068;6.572;2023-04-26T03:51:49;2.70;99.90
54832;DHT22;40730;53.068;6.572;2023-04-26T03:54:15;2.70;99.90
54832;DHT22;40730;53.068;6.572;2023-04-26T03:56:40;2.70;99.90
54832;DHT22;40730;53.068;6.572;2023-04-26T03:59:06;2.70;99.90
54832;DHT22;40730;53.068;6.572;2023-04-26T04:01:34;2.70;99.90
54832;DHT22;40730;53.068;6.572;2023-04-26T04:04:01;2.70;99.90
54832;DHT22;40730;53.068;6.572;2023-04-26T04:06:26;2.70;99.90
54832;DHT22;40730;53.068;6.572;2023-04-26T04:08:52;2.70;99.90
54832;DHT22;40730;53.068;6.572;2023-04-26T04:11:18;2.60;99.90
54832;DHT22;40730;53.068;6.572;2023-04-26T04:13:44;2.60;99.90
54832;DHT22;40730;53.068;6.572;2023-04-26T04:16:10;2.50;99.90
54832;DHT22;40730;53.068;6.572;2023-04-26T04:18:36;2.50;99.90
54832;DHT22;40730;53.068;6.572;2023-04-26T04:21:01;2.50;99.90
54832;DHT22;40730;53.068;6.572;2023-04-26T04:23:27;2.40;99.90
54832;DHT22;40730;53.068;6.572;2023-04-26T04:25:53;3.00;99.90
54832;DHT22;40730;53.068;6.572;2023-04-26T04:28:18;2.40;99.90
54832;DHT22;40730;53.068;6.572;2023-04-26T04:30:44;2.40;99.90
54832;DHT22;40730;53.068;6.572;2023-04-26T04:33:11;2.50;99.90
54832;DHT22;40730;53.068;6.572;2023-04-26T04:35:37;2.50;99.90
54832;DHT22;40730;53.068;6.572;2023-04-26T04:38:04;2.50;99.90
54832;DHT22;40730;53.068;6.572;2023-04-26T04:40:31;2.50;99.90
54832;DHT22;40730;53.068;6.572;2023-04-26T04:42:56;2.50;99.90
54832;DHT22;40730;53.068;6.572;2023-04-26T04:45:22;2.50;99.90
54832;DHT22;40730;53.068;6.572;2023-04-26T04:47:48;2.50;99.90
54832;DHT22;40730;53.068;6.572;2023-04-26T04:50:13;2.60;99.90
54832;DHT22;40730;53.068;6.572;2023-04-26T04:52:39;2.60;99.90
54832;DHT22;40730;53.068;6.572;2023-04-26T04:55:05;2.70;99.90
54832;DHT22;40730;53.068;6.572;2023-04-26T04:57:31;2.70;99.90
54832;DHT22;40730;53.068;6.572;2023-04-26T04:59:58;2.80;99.90
54832;DHT22;40730;53.068;6.572;2023-04-26T05:02:27;2.80;99.90
54832;DHT22;40730;53.068;6.572;2023-04-26T05:04:52;2.90;99.90
54832;DHT22;40730;53.068;6.572;2023-04-26T05:07:19;2.90;99.90
54832;DHT22;40730;53.068;6.572;2023-04-26T05:09:45;2.90;99.90
54832;DHT22;40730;53.068;6.572;2023-04-26T05:12:10;3.00;99.90
54832;DHT22;40730;53.068;6.572;2023-04-26T05:14:36;3.00;99.90
54832;DHT22;40730;53.068;6.572;2023-04-26T05:17:01;3.00;99.90
54832;DHT22;40730;53.068;6.572;2023-04-26T05:19:27;3.00;99.90
54832;DHT22;40730;53.068;6.572;2023-04-26T05:21:53;2.90;99.90
54832;DHT22;40730;53.068;6.572;2023-04-26T05:24:19;2.90;99.90
54832;DHT22;40730;53.068;6.572;2023-04-26T05:26:44;2.90;99.90
54832;DHT22;40730;53.068;6.572;2023-04-26T05:29:10;2.80;99.90
54832;DHT22;40730;53.068;6.572;2023-04-26T05:31:35;2.80;99.90
54832;DHT22;40730;53.068;6.572;2023-04-26T05:34:01;3.30;99.90
54832;DHT22;40730;53.068;6.572;2023-04-26T05:36:26;3.00;99.90
54832;DHT22;40730;53.068;6.572;2023-04-26T05:38:52;3.10;99.90
54832;DHT22;40730;53.068;6.572;2023-04-26T05:41:18;3.20;99.90
54832;DHT22;40730;53.068;6.572;2023-04-26T05:43:45;3.20;99.90
54832;DHT22;40730;53.068;6.572;2023-04-26T05:46:10;3.30;99.90
54832;DHT22;40730;53.068;6.572;2023-04-26T05:48:36;3.40;99.90
54832;DHT22;40730;53.068;6.572;2023-04-26T05:51:01;3.60;99.90
54832;DHT22;40730;53.068;6.572;2023-04-26T05:53:27;3.70;99.90
54832;DHT22;40730;53.068;6.572;2023-04-26T05:55:53;3.80;99.90
54832;DHT22;40730;53.068;6.572;2023-04-26T05:58:18;3.90;99.90
54832;DHT22;40730;53.068;6.572;2023-04-26T06:00:44;4.10;99.90
54832;DHT22;40730;53.068;6.572;2023-04-26T06:03:09;4.20;99.90
54832;DHT22;40730;53.068;6.572;2023-04-26T06:05:36;4.40;99.90
54832;DHT22;40730;53.068;6.572;2023-04-26T06:08:05;4.60;99.90
54832;DHT22;40730;53.068;6.572;2023-04-26T06:10:31;4.70;99.90
54832;DHT22;40730;53.068;6.572;2023-04-26T06:12:57;4.70;99.90
54832;DHT22;40730;53.068;6.572;2023-04-26T06:15:22;4.80;99.90
54832;DHT22;40730;53.068;6.572;2023-04-26T06:17:48;4.90;99.90
54832;DHT22;40730;53.068;6.572;2023-04-26T06:20:13;5.00;99.90
54832;DHT22;40730;53.068;6.572;2023-04-26T06:22:39;5.10;99.90
54832;DHT22;40730;53.068;6.572;2023-04-26T06:25:06;5.10;99.90
54832;DHT22;40730;53.068;6.572;2023-04-26T06:27:32;5.20;99.90
54832;DHT22;40730;53.068;6.572;2023-04-26T06:29:57;5.20;99.90
54832;DHT22;40730;53.068;6.572;2023-04-26T06:32:23;5.30;99.90
54832;DHT22;40730;53.068;6.572;2023-04-26T06:34:48;5.30;99.90
54832;DHT22;40730;53.068;6.572;2023-04-26T06:37:14;5.80;99.90
54832;DHT22;40730;53.068;6.572;2023-04-26T06:39:40;5.40;99.90
54832;DHT22;40730;53.068;6.572;2023-04-26T06:42:06;5.50;99.90
54832;DHT22;40730;53.068;6.572;2023-04-26T06:44:32;5.60;99.90
54832;DHT22;40730;53.068;6.572;2023-04-26T06:46:57;5.60;99.90
54832;DHT22;40730;53.068;6.572;2023-04-26T06:49:23;5.70;99.90
54832;DHT22;40730;53.068;6.572;2023-04-26T06:51:49;5.70;99.90
54832;DHT22;40730;53.068;6.572;2023-04-26T06:54:17;5.70;99.90
54832;DHT22;40730;53.068;6.572;2023-04-26T06:56:43;5.70;99.90
54832;DHT22;40730;53.068;6.572;2023-04-26T06:59:09;6.30;99.90
54832;DHT22;40730;53.068;6.572;2023-04-26T07:01:34;6.10;99.90
54832;DHT22;40730;53.068;6.572;2023-04-26T07:04:04;6.30;99.90
54832;DHT22;40730;53.068;6.572;2023-04-26T07:06:36;6.50;99.90
54832;DHT22;40730;53.068;6.572;2023-04-26T07:09:01;6.70;99.90
54832;DHT22;40730;53.068;6.572;2023-04-26T07:11:29;6.90;99.90
54832;DHT22;40730;53.068;6.572;2023-04-26T07:13:54;7.10;99.90
54832;DHT22;40730;53.068;6.572;2023-04-26T07:16:21;7.70;99.90
54832;DHT22;40730;53.068;6.572;2023-04-26T07:18:46;7.30;99.90
54832;DHT22;40730;53.068;6.572;2023-04-26T07:21:17;7.90;99.90
54832;DHT22;40730;53.068;6.572;2023-04-26T07:23:42;7.40;99.90
54832;DHT22;40730;53.068;6.572;2023-04-26T07:26:10;7.80;99.90
54832;DHT22;40730;53.068;6.572;2023-04-26T07:28:35;7.90;99.90
54832;DHT22;40730;53.068;6.572;2023-04-26T07:31:01;7.40;99.90
54832;DHT22;40730;53.068;6.572;2023-04-26T07:33:27;7.50;99.90
54832;DHT22;40730;53.068;6.572;2023-04-26T07:35:57;7.60;99.90
54832;DHT22;40730;53.068;6.572;2023-04-26T07:38:23;7.80;99.90
54832;DHT22;40730;53.068;6.572;2023-04-26T07:40:49;8.00;99.90
54832;DHT22;40730;53.068;6.572;2023-04-26T07:43:16;8.10;99.90
54832;DHT22;40730;53.068;6.572;2023-04-26T07:45:42;8.20;99.90
54832;DHT22;40730;53.068;6.572;2023-04-26T07:48:08;8.40;99.90
54832;DHT22;40730;53.068;6.572;2023-04-26T07:50:33;8.40;99.90
54832;DHT22;40730;53.068;6.572;2023-04-26T07:52:59;8.50;99.90
54832;DHT22;40730;53.068;6.572;2023-04-26T07:55:25;8.60;99.90
54832;DHT22;40730;53.068;6.572;2023-04-26T07:57:51;8.70;99.90
54832;DHT22;40730;53.068;6.572;2023-04-26T08:00:17;8.70;99.90
54832;DHT22;40730;53.068;6.572;2023-04-26T08:02:43;8.60;99.90
54832;DHT22;40730;53.068;6.572;2023-04-26T08:05:11;8.70;99.90
54832;DHT22;40730;53.068;6.572;2023-04-26T08:07:37;8.70;99.90
54832;DHT22;40730;53.068;6.572;2023-04-26T08:10:03;8.80;99.90
54832;DHT22;40730;53.068;6.572;2023-04-26T08:12:29;8.80;99.90
54832;DHT22;40730;53.068;6.572;2023-04-26T08:14:55;9.00;99.90
54832;DHT22;40730;53.068;6.572;2023-04-26T08:17:20;9.10;99.90
54832;DHT22;40730;53.068;6.572;2023-04-26T08:19:46;9.30;99.90
54832;DHT22;40730;53.068;6.572;2023-04-26T08:22:11;9.50;99.90
54832;DHT22;40730;53.068;6.572;2023-04-26T08:24:37;9.50;99.90
54832;DHT22;40730;53.068;6.572;2023-04-26T08:27:02;9.50;99.90
54832;DHT22;40730;53.068;6.572;2023-04-26T08:29:28;9.60;99.90
54832;DHT22;40730;53.068;6.572;2023-04-26T08:31:54;9.70;99.90
54832;DHT22;40730;53.068;6.572;2023-04-26T08:34:19;9.80;99.90
54832;DHT22;40730;53.068;6.572;2023-04-26T08:36:45;9.60;99.90
54832;DHT22;40730;53.068;6.572;2023-04-26T08:39:11;9.70;99.90
54832;DHT22;40730;53.068;6.572;2023-04-26T08:41:42;10.00;99.90
54832;DHT22;40730;53.068;6.572;2023-04-26T08:44:08;9.80;99.90
54832;DHT22;40730;53.068;6.572;2023-04-26T08:52:02;9.60;99.90
54832;DHT22;40730;53.068;6.572;2023-04-26T08:54:29;9.50;99.90
54832;DHT22;40730;53.068;6.572;2023-04-26T08:56:58;9.30;99.90
54832;DHT22;40730;53.068;6.572;2023-04-26T08:59:24;9.10;99.90
54832;DHT22;40730;53.068;6.572;2023-04-26T09:01:50;8.80;99.90
54832;DHT22;40730;53.068;6.572;2023-04-26T09:04:16;8.80;99.90
54832;DHT22;40730;53.068;6.572;2023-04-26T09:06:42;8.60;99.90
54832;DHT22;40730;53.068;6.572;2023-04-26T09:09:10;8.40;99.90
54832;DHT22;40730;53.068;6.572;2023-04-26T09:11:52;8.20;99.90
54832;DHT22;40730;53.068;6.572;2023-04-26T09:14:18;7.70;99.90
54832;DHT22;40730;53.068;6.572;2023-04-26T09:16:43;7.20;99.90
54832;DHT22;40730;53.068;6.572;2023-04-26T09:19:09;6.80;99.90
54832;DHT22;40730;53.068;6.572;2023-04-26T09:21:45;6.50;99.90
54832;DHT22;40730;53.068;6.572;2023-04-26T09:24:11;6.30;99.90
54832;DHT22;40730;53.068;6.572;2023-04-26T09:26:37;6.20;99.90
54832;DHT22;40730;53.068;6.572;2023-04-26T09:29:14;6.60;99.90
54832;DHT22;40730;53.068;6.572;2023-04-26T09:31:43;6.40;99.90
54832;DHT22;40730;53.068;6.572;2023-04-26T09:34:13;6.50;99.90
54832;DHT22;40730;53.068;6.572;2023-04-26T09:36:52;6.70;99.90
54832;DHT22;40730;53.068;6.572;2023-04-26T09:39:33;6.80;99.90
54832;DHT22;40730;53.068;6.572;2023-04-26T09:41:59;7.60;99.90
54832;DHT22;40730;53.068;6.572;2023-04-26T09:44:28;7.20;99.90
54832;DHT22;40730;53.068;6.572;2023-04-26T09:49:28;7.50;99.90
54832;DHT22;40730;53.068;6.572;2023-04-26T09:52:04;7.70;99.90
54832;DHT22;40730;53.068;6.572;2023-04-26T09:54:45;7.90;99.90
54832;DHT22;40730;53.068;6.572;2023-04-26T09:57:12;7.90;99.90
54832;DHT22;40730;53.068;6.572;2023-04-26T09:59:49;8.00;99.90
54832;DHT22;40730;53.068;6.572;2023-04-26T10:02:24;8.00;99.90
54832;DHT22;40730;53.068;6.572;2023-04-26T10:04:52;7.80;99.90
54832;DHT22;40730;53.068;6.572;2023-04-26T10:07:20;7.80;99.90
54832;DHT22;40730;53.068;6.572;2023-04-26T10:09:47;7.90;99.90
54832;DHT22;40730;53.068;6.572;2023-04-26T10:12:15;7.90;99.90
54832;DHT22;40730;53.068;6.572;2023-04-26T10:14:42;8.00;99.90
54832;DHT22;40730;53.068;6.572;2023-04-26T10:17:09;8.10;99.90
54832;DHT22;40730;53.068;6.572;2023-04-26T10:19:36;8.10;99.90
54832;DHT22;40730;53.068;6.572;2023-04-26T10:22:20;8.30;99.90
54832;DHT22;40730;53.068;6.572;2023-04-26T10:24:47;8.40;99.90
54832;DHT22;40730;53.068;6.572;2023-04-26T10:27:13;8.40;99.90
54832;DHT22;40730;53.068;6.572;2023-04-26T10:32:20;8.90;99.90
54832;DHT22;40730;53.068;6.572;2023-04-26T10:35:12;9.10;99.90
54832;DHT22;40730;53.068;6.572;2023-04-26T10:40:33;9.40;99.90
54832;DHT22;40730;53.068;6.572;2023-04-26T10:45:44;9.30;99.90
54832;DHT22;40730;53.068;6.572;2023-04-26T10:48:18;9.30;99.90
54832;DHT22;40730;53.068;6.572;2023-04-26T10:58:48;9.50;99.90
54832;DHT22;40730;53.068;6.572;2023-04-26T11:01:17;9.50;99.90
54832;DHT22;40730;53.068;6.572;2023-04-26T11:06:22;9.70;99.90
54832;DHT22;40730;53.068;6.572;2023-04-26T11:08:49;9.60;99.90
54832;DHT22;40730;53.068;6.572;2023-04-26T11:11:16;9.50;99.90
54832;DHT22;40730;53.068;6.572;2023-04-26T11:13:44;9.50;99.90
54832;DHT22;40730;53.068;6.572;2023-04-26T11:16:15;9.60;99.90
54832;DHT22;40730;53.068;6.572;2023-04-26T11:18:45;9.60;99.90
54832;DHT22;40730;53.068;6.572;2023-04-26T11:21:12;9.70;99.90
54832;DHT22;40730;53.068;6.572;2023-04-26T11:23:42;9.80;99.90
54832;DHT22;40730;53.068;6.572;2023-04-26T11:26:08;9.30;99.90
54832;DHT22;40730;53.068;6.572;2023-04-26T11:28:35;9.10;99.90
54832;DHT22;40730;53.068;6.572;2023-04-26T11:31:05;8.50;99.90
54832;DHT22;40730;53.068;6.572;2023-04-26T11:33:31;8.20;99.90
54832;DHT22;40730;53.068;6.572;2023-04-26T11:35:58;8.20;99.90
54832;DHT22;40730;53.068;6.572;2023-04-26T11:38:26;8.10;99.90
54832;DHT22;40730;53.068;6.572;2023-04-26T11:41:02;8.10;99.90
54832;DHT22;40730;53.068;6.572;2023-04-26T11:43:29;8.10;99.90
54832;DHT22;40730;53.068;6.572;2023-04-26T11:45:58;8.10;99.90
54832;DHT22;40730;53.068;6.572;2023-04-26T11:48:27;8.10;99.90
54832;DHT22;40730;53.068;6.572;2023-04-26T11:50:53;8.30;99.90
54832;DHT22;40730;53.068;6.572;2023-04-26T11:53:21;8.40;99.90
54832;DHT22;40730;53.068;6.572;2023-04-26T11:55:47;8.40;99.90
54832;DHT22;40730;53.068;6.572;2023-04-26T11:58:14;8.70;99.90
54832;DHT22;40730;53.068;6.572;2023-04-26T12:00:59;8.80;99.90
54832;DHT22;40730;53.068;6.572;2023-04-26T12:03:33;8.60;99.90
54832;DHT22;40730;53.068;6.572;2023-04-26T12:06:02;8.60;99.90
54832;DHT22;40730;53.068;6.572;2023-04-26T12:08:28;9.20;99.90
54832;DHT22;40730;53.068;6.572;2023-04-26T12:10:59;8.60;99.90
54832;DHT22;40730;53.068;6.572;2023-04-26T12:13:26;9.20;99.90
54832;DHT22;40730;53.068;6.572;2023-04-26T12:15:52;8.60;99.90
54832;DHT22;40730;53.068;6.572;2023-04-26T12:18:17;8.80;99.90
54832;DHT22;40730;53.068;6.572;2023-04-26T12:20:44;8.60;99.90
54832;DHT22;40730;53.068;6.572;2023-04-26T12:23:16;8.70;99.90
54832;DHT22;40730;53.068;6.572;2023-04-26T12:25:56;8.80;99.90
54832;DHT22;40730;53.068;6.572;2023-04-26T12:28:25;9.00;99.90
54832;DHT22;40730;53.068;6.572;2023-04-26T12:30:51;9.10;99.90
54832;DHT22;40730;53.068;6.572;2023-04-26T12:33:17;9.30;99.90
54832;DHT22;40730;53.068;6.572;2023-04-26T12:35:47;9.20;99.90
54832;DHT22;40730;53.068;6.572;2023-04-26T12:38:14;9.70;99.90
54832;DHT22;40730;53.068;6.572;2023-04-26T12:40:46;9.00;99.90
54832;DHT22;40730;53.068;6.572;2023-04-26T12:43:11;8.90;99.90
54832;DHT22;40730;53.068;6.572;2023-04-26T12:45:37;8.70;99.90
54832;DHT22;40730;53.068;6.572;2023-04-26T12:48:03;8.50;99.90
54832;DHT22;40730;53.068;6.572;2023-04-26T12:50:30;8.30;99.90
54832;DHT22;40730;53.068;6.572;2023-04-26T12:52:56;8.20;99.90
54832;DHT22;40730;53.068;6.572;2023-04-26T12:55:22;8.00;99.90
54832;DHT22;40730;53.068;6.572;2023-04-26T12:57:47;7.90;99.90
54832;DHT22;40730;53.068;6.572;2023-04-26T13:00:15;7.80;99.90
54832;DHT22;40730;53.068;6.572;2023-04-26T13:02:44;7.70;99.90
54832;DHT22;40730;53.068;6.572;2023-04-26T13:05:10;8.10;99.90
54832;DHT22;40730;53.068;6.572;2023-04-26T13:07:38;7.60;99.90
54832;DHT22;40730;53.068;6.572;2023-04-26T13:10:04;7.70;99.90
54832;DHT22;40730;53.068;6.572;2023-04-26T13:12:30;7.70;99.90
54832;DHT22;40730;53.068;6.572;2023-04-26T13:14:56;7.70;99.90
54832;DHT22;40730;53.068;6.572;2023-04-26T13:17:23;7.80;99.90
54832;DHT22;40730;53.068;6.572;2023-04-26T13:19:49;7.80;99.90
54832;DHT22;40730;53.068;6.572;2023-04-26T13:22:15;7.90;99.90
54832;DHT22;40730;53.068;6.572;2023-04-26T13:24:41;8.00;99.90
54832;DHT22;40730;53.068;6.572;2023-04-26T13:27:07;8.10;99.90
54832;DHT22;40730;53.068;6.572;2023-04-26T13:29:33;8.20;99.90
54832;DHT22;40730;53.068;6.572;2023-04-26T13:31:59;8.80;99.90
54832;DHT22;40730;53.068;6.572;2023-04-26T13:34:25;8.40;99.90
54832;DHT22;40730;53.068;6.572;2023-04-26T13:36:52;8.60;99.90
54832;DHT22;40730;53.068;6.572;2023-04-26T13:39:18;8.70;99.90
54832;DHT22;40730;53.068;6.572;2023-04-26T13:41:44;8.80;99.90
54832;DHT22;40730;53.068;6.572;2023-04-26T13:44:10;8.80;99.90
54832;DHT22;40730;53.068;6.572;2023-04-26T13:46:36;8.80;99.90
54832;DHT22;40730;53.068;6.572;2023-04-26T13:49:01;8.70;99.90
54832;DHT22;40730;53.068;6.572;2023-04-26T13:51:27;8.90;99.90
54832;DHT22;40730;53.068;6.572;2023-04-26T13:53:55;8.90;99.90
54832;DHT22;40730;53.068;6.572;2023-04-26T13:56:21;9.20;99.90
54832;DHT22;40730;53.068;6.572;2023-04-26T13:58:47;9.20;99.90
54832;DHT22;40730;53.068;6.572;2023-04-26T14:01:13;9.10;99.90
54832;DHT22;40730;53.068;6.572;2023-04-26T14:03:39;9.00;99.90
54832;DHT22;40730;53.068;6.572;2023-04-26T14:06:06;8.90;99.90
54832;DHT22;40730;53.068;6.572;2023-04-26T14:08:32;8.80;99.90
54832;DHT22;40730;53.068;6.572;2023-04-26T14:10:58;8.70;99.90
54832;DHT22;40730;53.068;6.572;2023-04-26T14:13:23;8.70;99.90
54832;DHT22;40730;53.068;6.572;2023-04-26T14:15:49;9.20;99.90
54832;DHT22;40730;53.068;6.572;2023-04-26T14:18:15;8.50;99.90
54832;DHT22;40730;53.068;6.572;2023-04-26T14:20:41;8.50;99.90
54832;DHT22;40730;53.068;6.572;2023-04-26T14:23:07;8.50;99.90
54832;DHT22;40730;53.068;6.572;2023-04-26T14:25:32;8.50;99.90
54832;DHT22;40730;53.068;6.572;2023-04-26T14:27:58;8.70;99.90
54832;DHT22;40730;53.068;6.572;2023-04-26T14:30:24;8.30;99.90
54832;DHT22;40730;53.068;6.572;2023-04-26T14:32:50;7.90;99.90
54832;DHT22;40730;53.068;6.572;2023-04-26T14:35:16;7.90;99.90
54832;DHT22;40730;53.068;6.572;2023-04-26T14:37:41;7.80;99.90
54832;DHT22;40730;53.068;6.572;2023-04-26T14:40:07;7.80;99.90
54832;DHT22;40730;53.068;6.572;2023-04-26T14:42:33;7.80;99.90
54832;DHT22;40730;53.068;6.572;2023-04-26T14:44:59;7.80;99.90
54832;DHT22;40730;53.068;6.572;2023-04-26T14:47:25;7.80;99.90
54832;DHT22;40730;53.068;6.572;2023-04-26T14:49:50;7.90;99.90
54832;DHT22;40730;53.068;6.572;2023-04-26T14:52:16;8.20;99.90
54832;DHT22;40730;53.068;6.572;2023-04-26T14:54:42;8.40;99.90
54832;DHT22;40730;53.068;6.572;2023-04-26T14:57:08;8.20;99.90
54832;DHT22;40730;53.068;6.572;2023-04-26T14:59:35;8.30;99.90
54832;DHT22;40730;53.068;6.572;2023-04-26T15:02:01;8.30;99.90
54832;DHT22;40730;53.068;6.572;2023-04-26T15:08:08;8.40;99.90
54832;DHT22;40730;53.068;6.572;2023-04-26T15:18:07;8.70;99.90
54832;DHT22;40730;53.068;6.572;2023-04-26T15:20:42;8.90;99.90
54832;DHT22;40730;53.068;6.572;2023-04-26T15:23:26;9.10;99.90
54832;DHT22;40730;53.068;6.572;2023-04-26T15:26:38;9.00;99.90
54832;DHT22;40730;53.068;6.572;2023-04-26T15:29:19;8.90;99.90
54832;DHT22;40730;53.068;6.572;2023-04-26T15:32:41;9.10;99.90
54832;DHT22;40730;53.068;6.572;2023-04-26T15:35:24;9.10;99.90
54832;DHT22;40730;53.068;6.572;2023-04-26T15:38:04;9.10;99.90
54832;DHT22;40730;53.068;6.572;2023-04-26T15:41:22;9.10;99.90
54832;DHT22;40730;53.068;6.572;2023-04-26T15:43:56;9.00;99.90
54832;DHT22;40730;53.068;6.572;2023-04-26T15:46:38;8.70;99.90
54832;DHT22;40730;53.068;6.572;2023-04-26T15:49:41;8.30;99.90
54832;DHT22;40730;53.068;6.572;2023-04-26T15:52:28;7.90;99.90
54832;DHT22;40730;53.068;6.572;2023-04-26T15:54:57;8.20;99.90
54832;DHT22;40730;53.068;6.572;2023-04-26T15:57:47;8.40;99.90
54832;DHT22;40730;53.068;6.572;2023-04-26T16:00:37;7.90;99.90
54832;DHT22;40730;53.068;6.572;2023-04-26T16:03:22;7.50;99.90
54832;DHT22;40730;53.068;6.572;2023-04-26T16:06:03;7.90;99.90
54832;DHT22;40730;53.068;6.572;2023-04-26T16:08:52;7.60;99.90
54832;DHT22;40730;53.068;6.572;2023-04-26T16:11:39;7.50;99.90
54832;DHT22;40730;53.068;6.572;2023-04-26T16:14:32;7.60;99.90
54832;DHT22;40730;53.068;6.572;2023-04-26T16:17:16;7.70;99.90
54832;DHT22;40730;53.068;6.572;2023-04-26T16:19:53;8.20;99.90
54832;DHT22;40730;53.068;6.572;2023-04-26T16:22:49;8.20;99.90
54832;DHT22;40730;53.068;6.572;2023-04-26T16:25:37;8.00;99.90
54832;DHT22;40730;53.068;6.572;2023-04-26T16:28:18;8.10;99.90